CYDC

Princeton Airport

Town of Princeton, British Columbia, Canada
METAR CYDC 140000Z 08008KT 070V130 20SM FEW040 SCT049 SCT060 BKN280 05/M00 A2987 RMK SF1SC3SC1CI2 SF TR SC TR SLP131
Observed Flight Rules
Dec-14 @ 00:00 UTC (44 minutes ago) Visual Flight Rules
Wind Visibility Clouds
80° at 8 knots 20 miles
  • Few at 4,000' AGL
  • Scattered at 4,900' AGL
  • Scattered at 6,000' AGL
  • Broken at 28,000' AGL
Temperatures Readings
Current 5°C / 41°F
Dewpoint 0°C / 32°F
Humidity 70%
Altimeter 29.87" Hg
Pressure 1013.1 hPa
Elevation 700
METAR CYDC 140000Z 08008KT 070V130 20SM FEW040 SCT049 SCT060 BKN280 05/M00 A2987 RMK SF1SC3SC1CI2 SF TR SC TR SLP131
Observed Flight Rules
Dec-14 @ 00:00 UTC
(44 minutes ago)
VFR
Wind Visibility
80° at 8 knots 20 miles
Clouds
  • Few at 4,000' AGL
  • Scattered at 4,900' AGL
  • Scattered at 6,000' AGL
  • Broken at 28,000' AGL
Temperature Dewpoint
5°C / 41°F 0°C / 32°F
Humidity Altimeter Pressure
70% 29.87" Hg 1013.1 hPa